Aérodrome :
LOGIN :

S'inscrire | Disclaimer

   EN    FR    IT 

 










Légende :    VFR   VFR Marginal   IFR   IFR Intensif   IFR Très Intensif
Visi : 
Plafond : 
>= 8 km
>= 3000ft
5 à 8 km
1000 à 3000 ft
1500m à 5 km
500 à 1000 ft
800 à 1500m
200 à 500 ft
< 800m
< 200 ft
Symboles :   Orages  Brouillard  Fortes neiges  Fortes précipitations  Vent > 20 kt
SIGMETs :   Divers  Orages  Givrage  Turbulence  Onde Orograph.  Cendres Volcan.






- Altitude de l'aérodrome : 256 ft
- Code IATA : CFR


LFRK - Caen

DERNIER METAR :
  • 091930Z AUTO 27009KT CAVOK 00/M00 Q1008 TEMPO 0500 FZFG BKN005 SCT020TCU

METARs EXPIRÉS :
  • 090500Z AUTO VRB02KT 1000 0700 R31/1300D BCFG FEW008 M03/M03 Q1006
  • 091900Z AUTO 27009KT CAVOK 00/M00 Q1008 TEMPO 2000 SHRASN BKN005 SCT020TCU
  • 091830Z AUTO 27008KT CAVOK M00/M01 Q1008 TEMPO 2000 SHRASN BKN005 SCT020TCU
  • 091800Z AUTO 27008KT CAVOK M00/M01 Q1008 TEMPO 2000 SHRASN BKN005 SCT020TCU
  • 091730Z AUTO 29005KT CAVOK M01/M01 Q1007 TEMPO 2000 SHRASN BKN005 SCT020TCU
  • 091700Z AUTO 28004KT CAVOK M00/M01 Q1007 TEMPO 2000 SHRASN BKN005 SCT020TCU

TAF TAF LFRK
Valide du 09 à 15h jusqu'au 10 à 00h UTC


091400Z 0915/0924 VRB03KT 6000 SCT003
PROB40
TEMPO 0915/0924 2000 SHRASN BKN005 SCT020TCU
TEMPO 0919/0924 3000 BR
PROB30
TEMPO 0921/0924 0500 FZFG VV///
Météo : +33 2 31 26 68 11



MET'MAP, la Météo Aéronautique d'un coup d'oeil ! - Copyright ORBIFLY Décembre 2007 - Disclaimer

ORBIFLY MET'MAP TEAM :

Programmation & Développement : Alexandra Zaïnal
Sur une idée originale de : Baudouin d'Aumeries
Soutien technique & logistique : Manuel Goepfert
Assistance : Marc-Olivier Méhu




SOURCES & CREDITS :

   NOAA